Time;durP1;ratioP1;P1;durP2;ratioP2;P2;SDS_P1;SDS_P2;PMS_P1;PMS_P2;Temp;Humidity;BMP_temperature;BMP_pressure;BME280_temperature;BME280_humidity;BME280_pressure;Samples;Min_cycle;Max_cycle;Signal;HPM_P1;HPM_P2
2022/05/22 00:02:27;;;;;;;4.20;0.70;;;;;;;14.34;54.02;99109.89;1657038;86;21047;-59
2022/05/22 00:04:57;;;;;;;5.15;0.60;;;;;;;14.28;53.86;99106.19;1657264;86;20989;-58
2022/05/22 00:07:25;;;;;;;0.95;0.50;;;;;;;14.23;53.66;99103.36;1656492;86;21088;-58
2022/05/22 00:09:55;;;;;;;2.85;0.50;;;;;;;14.20;53.91;99101.12;1690090;85;21000;-56
2022/05/22 00:12:24;;;;;;;3.87;0.60;;;;;;;14.16;53.62;99103.25;1690087;85;21483;-58
2022/05/22 00:14:53;;;;;;;1.42;0.60;;;;;;;14.13;53.55;99089.98;1690199;85;20995;-58
2022/05/22 00:17:22;;;;;;;3.22;0.70;;;;;;;14.08;53.36;99092.66;1690111;85;21035;-58
2022/05/22 00:19:50;;;;;;;2.30;0.45;;;;;;;14.00;53.29;99104.94;1690004;85;21028;-59
2022/05/22 00:22:19;;;;;;;0.98;0.50;;;;;;;13.91;53.42;99111.95;1690206;85;21016;-57
2022/05/22 00:24:47;;;;;;;1.52;0.40;;;;;;;13.87;53.47;99106.66;1690352;85;20971;-58
2022/05/22 00:27:17;;;;;;;3.40;0.50;;;;;;;13.82;53.39;99097.77;1690100;85;21023;-58
2022/05/22 00:29:45;;;;;;;1.27;0.30;;;;;;;13.79;53.52;99098.28;1690050;85;20971;-57
2022/05/22 00:32:15;;;;;;;5.95;0.50;;;;;;;13.79;53.18;99086.44;1690241;85;20984;-58
2022/05/22 00:34:45;;;;;;;1.60;0.37;;;;;;;13.76;52.97;99097.95;1690317;85;20996;-57
2022/05/22 00:37:13;;;;;;;0.68;0.30;;;;;;;13.73;52.95;99088.27;1690207;85;21000;-58
2022/05/22 00:39:43;;;;;;;0.78;0.50;;;;;;;13.72;52.83;99077.51;1690169;85;21032;-57
2022/05/22 00:42:20;;;;;;;1.60;0.40;;;;;;;13.67;52.86;99082.93;1690374;85;20996;-57
2022/05/22 00:44:48;;;;;;;;;;;;;;;13.63;53.03;99090.28;1692731;85;20996;-57
2022/05/22 00:47:18;;;;;;;1.82;0.50;;;;;;;13.63;53.11;99084.77;1690334;85;20170;-58
2022/05/22 00:49:47;;;;;;;1.82;0.42;;;;;;;13.60;53.18;99081.14;1690134;85;21415;-59
2022/05/22 00:52:37;;;;;;;1.17;0.40;;;;;;;13.59;53.29;99081.39;1690143;85;21030;-57
2022/05/22 00:55:15;;;;;;;4.00;0.40;;;;;;;13.58;53.41;99082.48;1687878;85;21019;-58
2022/05/22 00:57:55;;;;;;;1.70;0.40;;;;;;;13.56;53.50;99071.72;1690347;85;20987;-56
2022/05/22 01:00:32;;;;;;;3.15;0.88;;;;;;;13.53;53.76;99065.88;1690318;85;21000;-59
2022/05/22 01:05:52;;;;;;;2.90;0.50;;;;;;;13.48;54.00;99069.38;1691096;85;21075;-58
2022/05/22 01:08:21;;;;;;;6.45;0.40;;;;;;;13.46;54.17;99066.59;1695540;84;21003;-58
2022/05/22 01:10:57;;;;;;;3.52;0.57;;;;;;;13.44;54.26;99064.63;1695529;85;21011;-57
2022/05/22 01:13:33;;;;;;;1.77;0.50;;;;;;;13.43;54.33;99062.42;1694773;85;21038;-58
2022/05/22 01:16:04;;;;;;;5.03;0.78;;;;;;;13.39;54.49;99057.13;1695681;85;21023;-58
2022/05/22 01:18:55;;;;;;;4.80;0.50;;;;;;;13.35;54.60;99062.83;1695712;85;21011;-58
2022/05/22 01:21:31;;;;;;;2.25;0.50;;;;;;;13.30;54.71;99057.23;1693803;85;21047;-59
2022/05/22 01:24:00;;;;;;;2.30;0.60;;;;;;;13.25;54.88;99059.36;1695377;84;21024;-58
2022/05/22 01:26:30;;;;;;;3.60;0.50;;;;;;;13.22;55.01;99052.14;1695407;85;20987;-57
2022/05/22 01:29:03;;;;;;;3.95;0.40;;;;;;;13.18;55.03;99044.09;1694606;85;21007;-58
2022/05/22 01:31:32;;;;;;;1.20;0.57;;;;;;;13.14;55.05;99039.60;1695594;84;21007;-58
2022/05/22 01:34:04;;;;;;;1.47;0.33;;;;;;;13.12;55.26;99035.43;1695431;85;20972;-57
2022/05/22 01:36:33;;;;;;;2.12;0.50;;;;;;;13.09;55.40;99040.05;1695378;85;20976;-58
2022/05/22 01:39:02;;;;;;;2.52;0.70;;;;;;;13.08;55.56;99030.97;1695615;85;20999;-56
2022/05/22 01:41:32;;;;;;;1.55;0.57;;;;;;;13.06;55.69;99035.05;1693124;85;21031;-58
2022/05/22 01:44:00;;;;;;;3.15;0.50;;;;;;;13.05;55.82;99037.50;1695485;85;21071;-59
2022/05/22 01:46:31;;;;;;;1.45;0.60;;;;;;;13.04;55.98;99036.66;1695568;85;21465;-58
2022/05/22 01:49:02;;;;;;;2.62;0.50;;;;;;;13.01;56.05;99030.29;1695033;85;21011;-60
2022/05/22 01:51:38;;;;;;;2.05;0.50;;;;;;;12.98;56.12;99023.33;1695357;85;21015;-58
2022/05/22 01:54:06;;;;;;;1.98;0.50;;;;;;;12.97;56.30;99024.41;1695359;85;21019;-58
2022/05/22 01:56:37;;;;;;;2.72;0.50;;;;;;;12.96;56.39;99024.66;1695390;85;20991;-57
2022/05/22 01:59:07;;;;;;;2.72;0.60;;;;;;;12.94;56.56;99021.33;1695453;85;21026;-57
2022/05/22 02:01:37;;;;;;;2.58;0.60;;;;;;;12.91;56.71;99017.70;1695341;85;21027;-57
2022/05/22 02:04:06;;;;;;;1.00;0.50;;;;;;;12.88;56.91;99018.19;1695293;84;21046;-58
2022/05/22 02:08:19;;;;;;;3.42;0.70;;;;;;;12.86;56.97;99017.06;1697314;84;21035;-58
2022/05/22 02:09:09;;;;;;;1.67;0.50;;;;;;;12.85;57.07;99014.56;1673993;84;21052;-58
2022/05/22 02:11:39;;;;;;;0.72;0.50;;;;;;;12.83;57.15;99010.69;1700593;84;21475;-57
2022/05/22 02:14:08;;;;;;;2.75;0.60;;;;;;;12.83;57.20;99007.09;1700880;84;20995;-57
2022/05/22 02:16:38;;;;;;;2.05;0.60;;;;;;;12.83;57.31;99005.19;1641113;86;20995;-58
2022/05/22 02:19:08;;;;;;;1.00;0.50;;;;;;;12.79;57.41;99001.80;1663261;86;20999;-58
2022/05/22 02:21:37;;;;;;;1.22;0.72;;;;;;;12.77;57.58;99006.17;1663326;86;21059;-58
2022/05/22 02:24:07;;;;;;;3.02;0.60;;;;;;;12.75;57.56;98998.72;1663247;86;21023;-58
2022/05/22 02:26:36;;;;;;;1.95;0.50;;;;;;;12.76;57.63;98998.17;1663322;86;20984;-60
2022/05/22 02:29:07;;;;;;;2.50;0.60;;;;;;;12.74;57.71;98994.30;1640925;86;21003;-58
2022/05/22 02:31:36;;;;;;;1.55;0.60;;;;;;;12.71;57.72;98985.17;1663400;86;20980;-58
2022/05/22 02:34:05;;;;;;;2.85;0.80;;;;;;;12.73;57.85;98985.75;1671015;84;21003;-57
2022/05/22 02:36:35;;;;;;;2.47;0.57;;;;;;;12.73;57.93;98976.67;1701105;84;21031;-57
2022/05/22 02:39:03;;;;;;;3.42;0.65;;;;;;;12.70;57.92;98978.01;1700848;84;21038;-57
2022/05/22 02:41:33;;;;;;;0.98;0.60;;;;;;;12.70;58.03;98978.84;1700823;84;21431;-59
2022/05/22 02:44:02;;;;;;;2.45;0.60;;;;;;;12.71;57.96;98974.17;1700825;84;21063;-59
2022/05/22 02:46:30;;;;;;;2.10;0.68;;;;;;;12.73;57.97;98976.14;1701076;84;20996;-58
2022/05/22 02:48:59;;;;;;;0.80;0.60;;;;;;;12.73;57.96;98977.52;1701143;84;20995;-58
2022/05/22 02:51:32;;;;;;;0.80;0.65;;;;;;;12.75;57.98;98976.73;1699615;84;20995;-57
2022/05/22 02:54:01;;;;;;;5.95;0.70;;;;;;;12.77;58.00;98974.56;1700852;84;20968;-59
2022/05/22 02:56:44;;;;;;;1.05;0.60;;;;;;;12.78;58.02;98962.48;1700256;84;21031;-57
2022/05/22 02:59:20;;;;;;;2.87;0.50;;;;;;;12.82;58.03;98962.29;1688418;84;21011;-57
2022/05/22 03:01:53;;;;;;;1.12;0.62;;;;;;;12.84;58.10;98957.92;1658122;84;21015;-58
2022/05/22 03:04:21;;;;;;;3.37;0.65;;;;;;;12.83;58.17;98956.25;1700811;84;21011;-57
2022/05/22 03:06:51;;;;;;;2.95;0.60;;;;;;;12.84;58.27;98949.67;1700814;84;21031;-57
2022/05/22 03:09:21;;;;;;;2.08;0.70;;;;;;;12.84;58.39;98951.88;1700921;84;21028;-58
2022/05/22 03:11:51;;;;;;;3.05;0.70;;;;;;;12.85;58.53;98950.80;1701018;84;20995;-58
2022/05/22 03:14:20;;;;;;;2.72;0.50;;;;;;;12.88;58.63;98948.93;1700908;84;20999;-58
2022/05/22 03:16:49;;;;;;;1.82;0.70;;;;;;;12.91;58.62;98951.18;1700899;84;21018;-58
2022/05/22 03:19:22;;;;;;;1.87;0.62;;;;;;;12.95;58.75;98945.48;1699522;84;21015;-58
2022/05/22 03:21:50;;;;;;;3.92;0.78;;;;;;;12.97;58.80;98942.48;1700815;84;21023;-58
2022/05/22 03:24:19;;;;;;;2.58;0.60;;;;;;;13.00;58.90;98941.98;1700849;84;21011;-58
2022/05/22 03:26:51;;;;;;;5.92;0.80;;;;;;;13.04;58.97;98935.48;1700908;84;20995;-57
2022/05/22 03:29:20;;;;;;;2.67;0.70;;;;;;;13.05;59.03;98922.85;1700891;84;20995;-58
2022/05/22 03:31:50;;;;;;;1.05;0.60;;;;;;;13.07;59.12;98928.94;1700740;84;21416;-58
2022/05/22 03:34:19;;;;;;;4.08;0.98;;;;;;;13.10;59.19;98920.19;1700869;84;20994;-58
2022/05/22 03:36:49;;;;;;;3.00;0.70;;;;;;;13.12;59.20;98924.89;1700691;84;21051;-59
2022/05/22 03:39:18;;;;;;;1.32;0.70;;;;;;;13.15;59.27;98924.94;1700842;84;21062;-58
2022/05/22 03:41:47;;;;;;;1.67;0.78;;;;;;;13.17;59.48;98922.80;1700806;84;21026;-58
2022/05/22 03:44:18;;;;;;;4.20;0.75;;;;;;;13.16;59.69;98923.31;1700818;84;21370;-59
2022/05/22 03:46:49;;;;;;;2.08;0.62;;;;;;;13.14;59.94;98912.27;1700822;84;21027;-58
2022/05/22 03:49:19;;;;;;;5.25;0.90;;;;;;;13.16;59.88;98908.72;1700534;83;20983;-57
2022/05/22 03:51:50;;;;;;;3.10;0.78;;;;;;;13.20;59.93;98910.75;1700988;84;21031;-62
2022/05/22 03:54:20;;;;;;;2.22;0.78;;;;;;;13.24;59.93;98910.54;1700849;84;21045;-58
2022/05/22 03:56:50;;;;;;;2.95;0.88;;;;;;;13.25;60.03;98898.99;1700766;84;20971;-58
2022/05/22 03:59:24;;;;;;;4.40;0.80;;;;;;;13.27;60.05;98905.08;1700808;84;21041;-59
2022/05/22 04:01:56;;;;;;;5.03;1.00;;;;;;;13.27;60.17;98909.20;1700936;84;20975;-58
2022/05/22 04:04:26;;;;;;;3.33;1.07;;;;;;;13.26;60.15;98899.28;1700827;84;21039;-58
2022/05/22 04:06:56;;;;;;;4.25;1.10;;;;;;;13.26;60.17;98902.87;1699516;84;21055;-57
2022/05/22 04:09:29;;;;;;;3.05;1.00;;;;;;;13.27;60.22;98906.45;1695279;85;21007;-57
2022/05/22 04:12:00;;;;;;;2.77;0.90;;;;;;;13.26;60.27;98902.87;1695147;85;20996;-58
2022/05/22 04:14:30;;;;;;;3.60;0.93;;;;;;;13.25;60.41;98901.20;1635075;87;21408;-58
2022/05/22 04:17:01;;;;;;;4.37;1.05;;;;;;;13.25;60.41;98904.50;1634410;88;21024;-57
2022/05/22 04:19:31;;;;;;;2.62;1.00;;;;;;;13.25;60.40;98898.45;1634927;88;21512;-60
2022/05/22 04:22:00;;;;;;;4.12;1.07;;;;;;;13.27;60.51;98897.66;1634987;88;21023;-58
2022/05/22 04:27:17;;;;;;;3.02;1.22;;;;;;;13.32;60.42;98897.73;1635233;88;21019;-57
2022/05/22 04:29:46;;;;;;;3.90;1.10;;;;;;;13.33;60.22;98900.78;1634903;88;21011;-60
2022/05/22 04:32:15;;;;;;;3.33;1.40;;;;;;;13.35;60.27;98901.91;1634952;88;21098;-59
2022/05/22 04:34:46;;;;;;;6.62;1.45;;;;;;;13.39;59.94;98894.80;1634177;88;21067;-58
2022/05/22 04:37:15;;;;;;;3.00;1.10;;;;;;;13.45;60.00;98891.59;1634972;88;21471;-57
2022/05/22 04:39:45;;;;;;;1.42;1.02;;;;;;;13.52;59.68;98889.48;1679944;85;21019;-59
2022/05/22 04:42:14;;;;;;;3.15;0.88;;;;;;;13.56;59.08;98892.85;1695453;85;20987;-57
2022/05/22 04:44:44;;;;;;;3.12;0.90;;;;;;;13.59;58.83;98885.47;1695567;85;21015;-58
2022/05/22 04:47:18;;;;;;;2.70;0.85;;;;;;;13.63;58.66;98879.73;1656333;85;21039;-58
2022/05/22 04:49:49;;;;;;;2.80;0.90;;;;;;;13.68;58.35;98879.55;1692196;85;21035;-58
2022/05/22 04:52:18;;;;;;;2.67;1.00;;;;;;;13.68;57.94;98885.05;1667738;85;21007;-57
2022/05/22 04:54:47;;;;;;;1.87;1.00;;;;;;;13.65;57.80;98869.85;1695441;85;21388;-57
2022/05/22 04:57:16;;;;;;;2.92;0.90;;;;;;;13.64;57.94;98878.66;1695378;85;21332;-59
2022/05/22 04:59:46;;;;;;;3.85;1.00;;;;;;;13.68;57.75;98878.17;1695529;85;21480;-58
2022/05/22 05:02:15;;;;;;;2.70;1.00;;;;;;;13.70;57.87;98876.83;1695497;85;21019;-57
2022/05/22 05:04:48;;;;;;;2.02;0.80;;;;;;;13.75;57.72;98876.06;1693682;85;21046;-58
2022/05/22 05:07:33;;;;;;;3.22;1.00;;;;;;;13.81;57.56;98883.30;1691433;85;21043;-58
2022/05/22 05:10:12;;;;;;;3.83;1.05;;;;;;;13.86;57.45;98876.48;1685298;85;20996;-58
2022/05/22 05:12:54;;;;;;;2.17;1.00;;;;;;;13.91;57.25;98877.92;1687835;85;20992;-58
2022/05/22 05:15:29;;;;;;;3.58;0.70;;;;;;;13.94;56.76;98876.86;1688186;85;20997;-57
2022/05/22 05:18:00;;;;;;;2.08;0.57;;;;;;;13.96;56.33;98877.98;1687421;85;21472;-60
2022/05/22 05:20:30;;;;;;;0.90;0.70;;;;;;;14.02;55.75;98867.31;1688440;85;21016;-58
2022/05/22 05:23:05;;;;;;;3.20;0.78;;;;;;;14.05;55.14;98875.06;1666869;85;20991;-58
2022/05/22 05:25:42;;;;;;;1.85;0.70;;;;;;;14.08;54.79;98876.47;1688255;85;21039;-58
2022/05/22 05:28:11;;;;;;;0.90;0.60;;;;;;;14.12;54.51;98864.67;1688181;85;20992;-59
2022/05/22 05:30:41;;;;;;;4.10;0.78;;;;;;;14.20;54.20;98869.72;1688185;85;21008;-58
2022/05/22 05:33:09;;;;;;;4.05;0.60;;;;;;;14.31;53.91;98862.98;1688157;85;21044;-57
2022/05/22 05:35:56;;;;;;;2.20;0.80;;;;;;;14.45;54.00;98867.84;1688231;85;20992;-59
2022/05/22 05:38:31;;;;;;;2.40;0.70;;;;;;;14.63;53.61;98872.69;1684984;85;21415;-59
2022/05/22 05:41:02;;;;;;;1.12;0.60;;;;;;;14.66;53.19;98877.14;1688184;85;21024;-60
2022/05/22 05:43:31;;;;;;;2.17;0.70;;;;;;;14.63;53.14;98874.07;1688122;85;20973;-57
2022/05/22 05:45:59;;;;;;;1.57;0.65;;;;;;;14.57;53.13;98877.33;1688148;85;21000;-57
2022/05/22 05:48:30;;;;;;;1.92;0.70;;;;;;;14.49;53.12;98873.66;1688170;84;21025;-59
2022/05/22 05:51:01;;;;;;;4.97;0.70;;;;;;;14.47;53.42;98862.07;1688147;85;21432;-60
2022/05/22 05:53:32;;;;;;;1.62;0.80;;;;;;;14.50;53.22;98861.00;1687713;85;21043;-59
2022/05/22 05:56:09;;;;;;;3.65;0.70;;;;;;;14.48;53.35;98855.47;1685321;85;21004;-59
2022/05/22 05:58:46;;;;;;;2.45;0.68;;;;;;;14.46;53.44;98861.23;1643571;85;20983;-60
2022/05/22 06:01:17;;;;;;;2.80;1.00;;;;;;;14.44;53.47;98856.53;1687719;85;21027;-59
2022/05/22 06:03:47;;;;;;;1.70;0.70;;;;;;;14.40;53.49;98856.73;1688072;85;21428;-58
2022/05/22 06:06:16;;;;;;;4.67;0.60;;;;;;;14.37;53.50;98861.94;1688360;85;21024;-58
2022/05/22 06:08:44;;;;;;;1.77;0.60;;;;;;;14.27;53.51;98852.44;1696894;84;21019;-57
2022/05/22 06:11:20;;;;;;;0.65;0.50;;;;;;;14.23;53.82;98848.55;1699015;84;21031;-58
2022/05/22 06:13:51;;;;;;;1.95;0.80;;;;;;;14.26;53.93;98849.41;1701010;84;21004;-59
2022/05/22 06:16:20;;;;;;;3.30;0.70;;;;;;;14.26;54.00;98860.42;1700939;84;21423;-59
2022/05/22 06:18:50;;;;;;;5.72;0.90;;;;;;;14.21;54.04;98858.16;1699683;84;21023;-58
2022/05/22 06:21:21;;;;;;;1.85;0.60;;;;;;;14.14;54.18;98850.10;1700877;84;20968;-58
2022/05/22 06:23:51;;;;;;;3.72;0.78;;;;;;;14.10;54.47;98851.70;1700866;84;21462;-58
2022/05/22 06:26:27;;;;;;;4.45;1.37;;;;;;;14.07;54.70;98863.23;1664233;84;21019;-58
2022/05/22 06:28:57;;;;;;;3.15;0.70;;;;;;;14.03;55.16;98857.96;1655107;84;21059;-58
2022/05/22 06:31:33;;;;;;;2.55;0.75;;;;;;;14.00;55.67;98865.36;1658216;84;21023;-58
2022/05/22 06:34:03;;;;;;;1.32;0.60;;;;;;;13.95;55.96;98864.76;1638748;84;21007;-58
2022/05/22 06:36:51;;;;;;;2.37;1.02;;;;;;;13.92;56.16;98869.95;1700970;84;21034;-61
2022/05/22 06:42:37;;;;;;;6.03;0.88;;;;;;;13.94;56.57;98854.00;1699051;84;21003;-59
2022/05/22 06:45:25;;;;;;;1.45;0.60;;;;;;;13.92;56.79;98858.94;1700562;84;21457;-57
2022/05/22 06:48:13;;;;;;;1.77;0.80;;;;;;;13.92;57.07;98852.05;1700957;84;21046;-58
2022/05/22 06:50:53;;;;;;;1.95;0.95;;;;;;;13.91;57.31;98862.77;1700903;84;21404;-59
2022/05/22 06:53:33;;;;;;;1.15;0.80;;;;;;;13.86;57.62;98873.73;1700780;84;21011;-60
2022/05/22 06:56:05;;;;;;;2.30;0.90;;;;;;;13.80;58.15;98877.51;1700840;84;20999;-58
2022/05/22 06:58:37;;;;;;;3.70;0.70;;;;;;;13.72;58.49;98873.28;1700973;84;21042;-60
2022/05/22 07:01:17;;;;;;;1.20;0.75;;;;;;;13.67;58.93;98882.02;1700895;84;20995;-58
2022/05/22 07:03:50;;;;;;;3.20;0.93;;;;;;;13.60;59.26;98876.12;1698217;83;21419;-59
2022/05/22 07:06:21;;;;;;;4.12;0.98;;;;;;;13.57;59.23;98873.87;1653448;84;21007;-59
2022/05/22 07:08:52;;;;;;;3.17;0.70;;;;;;;13.55;59.21;98871.92;1648053;85;21053;-59
2022/05/22 07:11:40;;;;;;;3.10;0.70;;;;;;;13.52;59.27;98871.60;1671693;85;21016;-58
2022/05/22 07:14:27;;;;;;;2.03;0.70;;;;;;;13.50;59.36;98877.91;1593635;89;21044;-61
2022/05/22 07:17:03;;;;;;;2.12;0.80;;;;;;;13.51;59.28;98884.52;1640722;85;21000;-59
2022/05/22 07:19:34;;;;;;;9.48;1.02;;;;;;;13.58;58.98;98874.16;1686629;85;20999;-59
2022/05/22 07:22:07;;;;;;;4.58;0.78;;;;;;;13.60;58.81;98876.12;1687017;85;21024;-59
2022/05/22 07:24:37;;;;;;;2.95;0.78;;;;;;;13.60;58.15;98868.41;1686259;85;21555;-58
2022/05/22 07:27:17;;;;;;;1.80;0.70;;;;;;;13.58;58.03;98867.28;1593849;89;21012;-59
2022/05/22 07:29:52;;;;;;;1.92;0.78;;;;;;;13.57;58.05;98871.67;1685605;85;20996;-59
2022/05/22 07:32:22;;;;;;;3.33;0.62;;;;;;;13.57;58.33;98876.62;1668386;85;21020;-59
2022/05/22 07:35:11;;;;;;;3.15;0.70;;;;;;;13.57;58.88;98871.13;1687003;85;21028;-58
2022/05/22 07:37:50;;;;;;;;;;;;;;;13.61;58.90;98874.20;1595916;89;21052;-58
2022/05/22 07:40:37;;;;;;;3.47;0.72;;;;;;;13.64;58.92;98874.52;1593400;90;20171;-59
2022/05/22 07:43:14;;;;;;;3.15;0.80;;;;;;;13.58;58.90;98874.16;1593516;90;21459;-59
2022/05/22 07:45:47;;;;;;;3.27;0.80;;;;;;;13.53;59.21;98880.14;1592409;90;21036;-59
2022/05/22 07:48:23;;;;;;;2.70;0.80;;;;;;;13.50;59.42;98877.91;1593086;90;21032;-60
2022/05/22 07:51:02;;;;;;;2.42;1.07;;;;;;;13.47;59.75;98872.36;1592002;90;21044;-59
2022/05/22 07:53:39;;;;;;;1.07;0.72;;;;;;;13.48;60.07;98885.03;1594576;90;20999;-58
2022/05/22 07:56:22;;;;;;;4.20;0.90;;;;;;;13.50;59.84;98873.23;1595213;90;21473;-59
2022/05/22 07:58:59;;;;;;;1.77;0.50;;;;;;;13.52;60.17;98879.31;1593626;90;21499;-58
2022/05/22 08:01:32;;;;;;;2.58;0.53;;;;;;;13.55;60.27;98878.80;1591986;90;20996;-59
2022/05/22 08:04:04;;;;;;;1.85;1.05;;;;;;;13.56;61.43;98892.02;1592689;90;21035;-58
2022/05/22 08:06:49;;;;;;;4.17;0.60;;;;;;;13.54;61.19;98893.65;1590324;90;21052;-57
2022/05/22 08:09:22;;;;;;;2.60;0.80;;;;;;;13.48;61.62;98907.05;1595348;88;21051;-58
2022/05/22 08:11:52;;;;;;;1.25;0.60;;;;;;;13.39;62.36;98889.30;1597347;90;20999;-58
2022/05/22 08:14:21;;;;;;;2.83;0.50;;;;;;;13.36;62.62;98884.85;1617851;84;21028;-59
2022/05/22 08:16:51;;;;;;;1.65;0.80;;;;;;;13.40;62.33;98884.09;1685087;83;21072;-58
2022/05/22 08:19:21;;;;;;;0.70;0.70;;;;;;;13.51;61.67;98881.77;1650263;87;21087;-59
2022/05/22 08:21:52;;;;;;;1.22;0.70;;;;;;;13.63;61.28;98871.48;1633829;87;21034;-58
2022/05/22 08:24:21;;;;;;;1.45;0.60;;;;;;;13.84;61.13;98874.53;1690056;85;21032;-58
2022/05/22 08:26:51;;;;;;;1.25;0.75;;;;;;;14.01;60.11;98871.70;1690048;85;21012;-59
2022/05/22 08:29:23;;;;;;;3.83;0.60;;;;;;;14.16;59.77;98882.89;1690065;85;21381;-58
2022/05/22 08:31:53;;;;;;;2.67;0.90;;;;;;;14.23;59.00;98876.09;1690040;85;21451;-58
2022/05/22 08:34:22;;;;;;;0.88;0.57;;;;;;;14.25;58.96;98882.17;1656593;86;21436;-59
2022/05/22 08:36:51;;;;;;;0.70;0.55;;;;;;;14.24;58.87;98878.30;1690080;85;21007;-58
2022/05/22 08:39:19;;;;;;;1.60;0.70;;;;;;;14.26;59.37;98882.46;1690065;85;21020;-58
2022/05/22 08:41:50;;;;;;;0.93;0.70;;;;;;;14.31;59.36;98876.20;1656635;86;21016;-60
2022/05/22 08:44:21;;;;;;;7.22;0.80;;;;;;;14.32;59.87;98879.25;1689950;85;21040;-60
2022/05/22 08:47:01;;;;;;;1.40;0.57;;;;;;;14.27;59.88;98882.75;1689962;85;21016;-58
2022/05/22 08:49:53;;;;;;;3.62;0.80;;;;;;;14.23;60.66;98875.27;1719754;83;21472;-59
2022/05/22 08:52:46;;;;;;;4.30;0.80;;;;;;;14.24;60.86;98879.13;1721573;83;20968;-60
2022/05/22 09:01:15;;;;;;;0.55;0.47;;;;;;;14.24;59.18;98886.56;1710776;83;21004;-62
2022/05/22 09:03:58;;;;;;;1.80;0.50;;;;;;;14.23;59.63;98885.73;1688543;85;21135;-62
2022/05/22 09:06:31;;;;;;;0.82;0.50;;;;;;;14.23;59.33;98891.79;1688430;85;21059;-63
2022/05/22 09:09:00;;;;;;;2.45;0.60;;;;;;;14.22;59.67;98886.83;1687757;84;21027;-62
2022/05/22 09:12:08;;;;;;;0.98;0.50;;;;;;;14.29;59.59;98890.75;1644069;85;21047;-61
2022/05/22 09:14:44;;;;;;;0.60;0.45;;;;;;;14.33;60.32;98892.48;1686844;85;21000;-59
2022/05/22 09:17:17;;;;;;;0.75;0.42;;;;;;;14.32;61.52;98897.70;1688217;85;20995;-56
2022/05/22 09:19:54;;;;;;;0.72;0.45;;;;;;;14.28;61.16;98895.43;1688358;85;20992;-58
2022/05/22 09:22:48;;;;;;;1.60;0.87;;;;;;;14.25;61.51;98905.59;1688251;85;21012;-57
2022/05/22 09:25:52;;;;;;;1.32;0.70;;;;;;;14.19;61.96;98892.02;1687995;85;21172;-57
2022/05/22 09:28:39;;;;;;;0.90;0.55;;;;;;;14.05;62.17;98897.64;1688007;85;21008;-55
2022/05/22 09:31:39;;;;;;;1.10;0.47;;;;;;;13.93;63.88;98906.03;1688119;85;21012;-57
2022/05/22 09:34:31;;;;;;;0.98;0.45;;;;;;;13.87;62.49;98893.28;1661820;85;21039;-56
2022/05/22 09:37:16;;;;;;;4.50;0.40;;;;;;;13.71;61.42;98901.89;1661910;86;21019;-56
2022/05/22 09:40:14;;;;;;;16.65;0.82;;;;;;;13.69;60.88;98913.70;1661948;85;21416;-56
2022/05/22 09:43:17;;;;;;;3.42;0.47;;;;;;;13.69;61.77;98908.73;1662171;85;21042;-56
2022/05/22 09:45:57;;;;;;;1.95;0.30;;;;;;;13.64;62.77;98903.42;1661887;86;21085;-55
2022/05/22 09:48:42;;;;;;;0.85;0.40;;;;;;;13.63;62.28;98909.17;1662015;86;20991;-57
2022/05/22 09:51:49;;;;;;;2.77;0.57;;;;;;;13.68;62.40;98911.20;1646327;87;21444;-60
2022/05/22 09:54:34;;;;;;;0.72;0.65;;;;;;;13.69;61.81;98909.57;1646397;87;21080;-55
2022/05/22 09:57:25;;;;;;;1.75;1.05;;;;;;;13.68;62.60;98922.20;1643274;87;21024;-55
2022/05/22 10:00:17;;;;;;;3.25;0.70;;;;;;;13.68;63.86;98922.20;1617523;88;21031;-55
2022/05/22 10:03:10;;;;;;;1.57;0.47;;;;;;;13.54;64.55;98921.70;1592380;88;21066;-55
2022/05/22 10:05:47;;;;;;;1.20;0.80;;;;;;;13.47;65.26;98926.02;1618110;88;21061;-56
2022/05/22 10:08:37;;;;;;;2.52;0.70;;;;;;;13.40;66.68;98928.11;1563847;88;21022;-54
2022/05/22 10:11:22;;;;;;;1.52;0.70;;;;;;;13.35;68.28;98923.08;1618126;88;21078;-56
2022/05/22 10:14:45;;;;;;;0.53;0.40;;;;;;;13.18;67.41;98917.59;1663817;85;21003;-55
2022/05/22 10:17:58;;;;;;;0.88;0.50;;;;;;;13.01;66.91;98932.14;1631136;87;21008;-55
2022/05/22 10:20:48;;;;;;;1.50;0.60;;;;;;;12.93;66.78;98938.02;1663794;86;21110;-57
2022/05/22 10:23:38;;;;;;;2.72;0.70;;;;;;;12.97;66.28;98941.10;1637264;87;21094;-56
2022/05/22 10:26:20;;;;;;;1.30;0.60;;;;;;;12.97;66.25;98940.56;1666719;86;21019;-54
2022/05/22 10:29:11;;;;;;;3.50;1.22;;;;;;;12.99;66.06;98943.90;1638907;87;21008;-54
2022/05/22 10:32:05;;;;;;;0.85;0.45;;;;;;;13.03;65.86;98928.31;1666855;85;21031;-54
2022/05/22 10:34:59;;;;;;;4.08;0.85;;;;;;;13.05;65.97;98938.52;1638759;87;21039;-56
2022/05/22 10:37:47;;;;;;;1.42;0.50;;;;;;;13.07;66.35;98941.84;1666792;86;21162;-56
2022/05/22 10:40:23;;;;;;;2.25;0.72;;;;;;;13.11;66.97;98941.64;1666711;86;21062;-56
2022/05/22 10:42:54;;;;;;;1.10;0.80;;;;;;;13.12;68.88;98943.31;1638718;87;21068;-58
2022/05/22 10:45:37;;;;;;;1.00;0.75;;;;;;;13.09;70.11;98949.31;1667075;86;21011;-57
2022/05/22 10:48:22;;;;;;;3.05;0.53;;;;;;;12.99;71.54;98948.56;1666827;86;21463;-58
2022/05/22 10:50:58;;;;;;;0.95;0.50;;;;;;;12.84;72.27;98945.55;1638606;87;21008;-56
2022/05/22 10:53:40;;;;;;;1.17;0.70;;;;;;;12.76;73.42;98960.53;1638689;86;21100;-54
2022/05/22 10:56:27;;;;;;;4.45;0.75;;;;;;;12.65;74.56;98950.44;1666659;86;21027;-58
2022/05/22 10:59:06;;;;;;;0.80;0.60;;;;;;;12.58;75.42;98956.08;1639006;87;21000;-54
2022/05/22 11:01:38;;;;;;;1.40;0.55;;;;;;;12.56;75.98;98958.24;1638777;87;21630;-53
2022/05/22 11:04:16;;;;;;;0.75;0.50;;;;;;;12.51;76.46;98963.64;1638741;87;21075;-55
2022/05/22 11:06:59;;;;;;;1.15;0.70;;;;;;;12.51;77.04;98962.80;1666761;86;20996;-55
2022/05/22 11:09:31;;;;;;;1.12;0.60;;;;;;;12.47;77.26;98950.64;1672724;85;21532;-56
2022/05/22 11:12:16;;;;;;;0.82;0.60;;;;;;;12.37;77.41;98964.47;1683170;85;21051;-56
2022/05/22 11:14:46;;;;;;;1.30;0.60;;;;;;;12.36;78.04;98971.58;1672176;84;20993;-57
2022/05/22 11:17:17;;;;;;;1.00;0.60;;;;;;;12.37;77.98;98963.09;1667435;86;20987;-55
2022/05/22 11:19:51;;;;;;;1.02;0.60;;;;;;;12.40;77.87;98967.80;1667485;86;21338;-55
2022/05/22 11:23:00;;;;;;;1.95;1.10;;;;;;;12.41;77.81;98968.10;1680911;84;21399;-55
2022/05/22 11:25:40;;;;;;;0.57;0.57;;;;;;;12.45;77.83;98964.62;1700677;84;21020;-56
2022/05/22 11:28:20;;;;;;;2.47;0.50;;;;;;;12.48;77.10;98979.78;1700628;84;21071;-55
2022/05/22 11:31:27;;;;;;;1.27;0.80;;;;;;;12.48;76.83;98972.37;1700594;84;21037;-55
2022/05/22 11:34:16;;;;;;;1.12;0.70;;;;;;;12.48;77.10;98972.91;1700596;83;21036;-53
2022/05/22 11:37:09;;;;;;;2.05;0.68;;;;;;;12.48;77.10;98976.49;1700750;84;21047;-56
2022/05/22 11:39:52;;;;;;;2.08;0.70;;;;;;;12.52;77.37;98980.95;1700943;84;21003;-55
2022/05/22 11:42:34;;;;;;;1.27;0.85;;;;;;;12.57;77.12;98961.28;1700712;84;21069;-55
2022/05/22 11:45:23;;;;;;;0.70;0.70;;;;;;;12.58;76.12;98987.67;1700627;84;21015;-54
2022/05/22 11:48:15;;;;;;;1.62;0.70;;;;;;;12.55;76.05;98980.46;1672542;84;21037;-55
2022/05/22 11:51:10;;;;;;;1.50;0.70;;;;;;;12.57;75.93;98990.67;1667518;86;21009;-55
2022/05/22 11:54:06;;;;;;;0.90;0.60;;;;;;;12.59;76.00;98987.97;1667370;86;21029;-56
2022/05/22 11:56:43;;;;;;;0.85;0.70;;;;;;;12.62;76.29;98993.52;1667684;86;21025;-55
2022/05/22 11:59:20;;;;;;;1.55;0.60;;;;;;;12.63;76.48;99001.52;1611318;89;21040;-55
2022/05/22 12:02:24;;;;;;;1.05;0.70;;;;;;;12.60;76.94;99002.55;1667492;86;20997;-55
2022/05/22 12:05:05;;;;;;;1.75;0.80;;;;;;;12.53;77.34;99004.06;1667493;86;21025;-54
2022/05/22 12:07:55;;;;;;;1.32;0.70;;;;;;;12.46;77.26;99002.00;1653534;86;21017;-55
2022/05/22 12:10:34;;;;;;;1.55;0.90;;;;;;;12.40;77.51;99004.89;1680239;85;21432;-56
2022/05/22 12:13:23;;;;;;;2.20;0.78;;;;;;;12.31;77.80;99003.86;1688265;85;20991;-56
2022/05/22 12:16:06;;;;;;;1.32;0.80;;;;;;;12.30;78.15;99011.81;1688039;85;21443;-55
2022/05/22 12:19:11;;;;;;;1.27;1.00;;;;;;;12.32;77.58;99008.81;1687978;84;21455;-55
2022/05/22 12:22:02;;;;;;;1.10;0.60;;;;;;;12.30;77.85;99010.44;1687823;85;21046;-56
2022/05/22 12:24:51;;;;;;;1.22;0.80;;;;;;;12.30;78.19;99006.85;1686811;85;21056;-56
2022/05/22 12:27:32;;;;;;;1.42;0.93;;;;;;;12.28;77.75;99020.83;1687185;85;20999;-56
2022/05/22 12:30:10;;;;;;;2.33;0.78;;;;;;;12.28;77.95;99012.59;1686941;85;21008;-57
2022/05/22 12:32:57;;;;;;;2.50;0.98;;;;;;;12.29;78.27;99021.66;1687366;85;21051;-55